Predmore, Minnesota
Current Conditions -  °F | °C
As of 4:13 AM on Thursday 27 Nov 2014 (Local Time) from K9MN Reporting Station
Clear Clear  
Wind Chill: -7°   Ceiling: Unl
Heat Index:   Visibility: 10mi
Dew Point: -2°   Wind: 9mph
Humidity: 67%   Direction: 310°NW
Pressure: 30.38"   Gusts: 17mph
Location:  44.0209°N, 92.2585°W
Report Text: K9MN 271013Z AUTO 31008G15KT 260V340 10SM CLR M14/M19 A3038 RMK AO1 T11401190
Loading
Personal Weather Stations






























Interactive Weather Map New forecast layout! Learn more

10-Day Weather Forecast

Advertisements
Track Severe Weather on mobile